EDT,Max TemperatureF,Mean TemperatureF,Min TemperatureF,Max Dew PointF,MeanDew PointF,Min DewpointF,Max Humidity, Mean Humidity, Min Humidity, Max Sea Level PressureIn, Mean Sea Level PressureIn, Min Sea Level PressureIn, Max VisibilityMiles, Mean VisibilityMiles, Min VisibilityMiles, Max Wind SpeedMPH, Mean Wind SpeedMPH, Max Gust SpeedMPH,PrecipitationIn, CloudCover, Events, WindDirDegrees
2013-6-1,91,82,73,70,68,66,83,64,43,30.13,30.07,30.00,10,10,10,12,7,18,0.00,0,,211
2013-6-2,89,80,71,70,66,64,83,63,43,30.03,29.97,29.90,10,10,10,12,7,18,0.00,2,,218
2013-6-3,80,74,69,73,71,68,100,86,74,29.94,29.89,29.83,10,9,0,12,6,20,1.34,5,,210
2013-6-4,78,69,60,70,62,57,100,77,50,30.15,30.05,29.94,10,9,2,10,5,16,0.00,2,,25
2013-6-5,80,68,57,63,56,52,100,68,37,30.19,30.14,30.10,10,10,7,12,2,,0.00,0,,109
2013-6-6,82,72,62,70,64,55,94,77,54,30.10,29.99,29.89,10,10,10,18,7,26,0.00,1,,135
2013-6-7,80,74,69,79,71,70,100,94,88,29.89,29.70,29.49,10,5,0,23,7,32,4.92,8,,162
2013-6-8,82,76,68,72,69,66,100,86,58,30.11,29.95,29.77,10,9,0,10,4,17,0.35,4,,253
2013-6-9,86,76,66,73,70,66,100,84,62,30.19,30.14,30.11,10,8,2,9,2,17,0.00,0,,126
2013-6-10,84,78,71,75,73,70,94,87,70,30.11,30.01,29.90,10,9,0,20,7,34,1.59,5,,187
2013-6-11,87,80,73,72,68,66,94,68,49,29.92,29.87,29.83,10,10,10,16,9,21,0.00,3,,258
2013-6-12,93,81,69,75,69,64,89,70,46,29.93,29.88,29.83,10,10,10,13,5,18,0.00,1,,267
2013-6-13,96,86,77,75,73,72,89,69,44,29.84,29.71,29.53,10,10,10,14,5,23,0.00,0,,234
2013-6-14,64,63,62,61,60,59,94,90,83,29.99,29.98,29.97,10,10,10,6,1,,0.00,0,,255
2013-6-15,86,74,62,66,61,57,94,67,37,30.10,30.05,29.99,10,10,7,10,4,,0.00,0,,280
2013-6-16,89,78,66,70,66,61,100,66,49,30.07,30.01,29.95,10,10,7,14,6,25,0.00,0,,239
2013-6-17,84,78,71,73,70,66,94,78,65,30.03,29.98,29.94,10,10,2,9,6,17,0.24,2,,217
2013-6-18,82,75,68,73,71,66,94,86,70,29.97,29.87,29.78,10,9,1,12,5,20,0.24,5,,213
2013-6-19,75,70,64,70,65,63,100,86,73,30.17,30.02,29.85,10,9,3,7,3,,0.01,3,,55
2013-6-20,80,70,60,64,58,52,100,71,39,30.29,30.25,30.17,10,10,5,12,2,17,0.00,0,,96
2013-6-21,82,70,57,70,64,57,100,82,58,30.29,30.27,30.25,10,9,2,9,2,16,0.03,4,,95
2013-6-22,87,74,62,73,67,63,100,83,58,30.26,30.23,30.19,10,10,7,16,3,20,0.01,2,,127
2013-6-23,89,79,69,73,71,68,100,79,55,30.21,30.17,30.12,10,9,1,12,5,18,0.53,5,,201
2013-6-24,91,83,75,75,73,72,89,74,52,30.19,30.14,30.07,10,10,10,12,5,,0.00,2,,227
2013-6-25,93,84,75,73,73,72,89,71,49,30.10,30.03,29.95,10,10,10,10,6,17,0.00,0,,249
2013-6-26,93,82,71,75,71,68,94,73,52,29.98,29.92,29.85,10,10,4,14,7,31,0.07,1,,236
2013-6-27,89,80,71,73,71,68,94,80,52,29.89,29.79,29.70,10,10,5,21,6,31,0.19,4,,220
2013-6-28,93,84,75,73,72,66,94,73,49,29.70,29.62,29.55,10,10,10,12,6,23,0.00,3,,226
2013-6-29,87,79,71,75,72,68,94,79,58,29.75,29.66,29.59,10,10,3,12,7,21,0.29,3,,208
2013-6-30,87,82,77,75,73,72,89,79,66,29.90,29.81,29.75,10,10,10,13,8,17,0.00,4,,184